sensor_id;sensor_type;location;lat;lon;timestamp;temperature;humidity
59505;DHT22;45321;53.200;5.814;2023-09-18T00:01:09;18.30;89.50
59505;DHT22;45321;53.200;5.814;2023-09-18T00:03:38;18.30;89.60
59505;DHT22;45321;53.200;5.814;2023-09-18T00:06:04;18.40;89.60
59505;DHT22;45321;53.200;5.814;2023-09-18T00:08:31;18.30;89.50
59505;DHT22;45321;53.200;5.814;2023-09-18T00:10:57;18.30;89.60
59505;DHT22;45321;53.200;5.814;2023-09-18T00:13:23;18.30;89.50
59505;DHT22;45321;53.200;5.814;2023-09-18T00:15:49;18.30;89.40
59505;DHT22;45321;53.200;5.814;2023-09-18T00:18:17;18.30;89.40
59505;DHT22;45321;53.200;5.814;2023-09-18T00:20:43;18.20;89.40
59505;DHT22;45321;53.200;5.814;2023-09-18T00:23:09;18.20;89.40
59505;DHT22;45321;53.200;5.814;2023-09-18T00:25:35;18.20;89.50
59505;DHT22;45321;53.200;5.814;2023-09-18T00:28:02;18.20;89.50
59505;DHT22;45321;53.200;5.814;2023-09-18T00:30:28;18.20;89.60
59505;DHT22;45321;53.200;5.814;2023-09-18T00:32:54;18.20;89.60
59505;DHT22;45321;53.200;5.814;2023-09-18T00:35:20;18.20;89.70
59505;DHT22;45321;53.200;5.814;2023-09-18T00:37:50;18.20;89.70
59505;DHT22;45321;53.200;5.814;2023-09-18T00:40:19;18.20;89.70
59505;DHT22;45321;53.200;5.814;2023-09-18T00:42:44;18.20;89.70
59505;DHT22;45321;53.200;5.814;2023-09-18T00:45:11;18.20;89.70
59505;DHT22;45321;53.200;5.814;2023-09-18T00:47:36;18.20;89.70
59505;DHT22;45321;53.200;5.814;2023-09-18T00:50:03;18.20;89.70
59505;DHT22;45321;53.200;5.814;2023-09-18T00:52:29;18.20;89.80
59505;DHT22;45321;53.200;5.814;2023-09-18T00:54:57;18.20;89.80
59505;DHT22;45321;53.200;5.814;2023-09-18T00:57:23;18.20;89.90
59505;DHT22;45321;53.200;5.814;2023-09-18T00:59:49;18.20;89.90
59505;DHT22;45321;53.200;5.814;2023-09-18T01:02:15;18.20;89.90
59505;DHT22;45321;53.200;5.814;2023-09-18T01:04:42;18.20;89.90
59505;DHT22;45321;53.200;5.814;2023-09-18T01:07:10;18.20;89.80
59505;DHT22;45321;53.200;5.814;2023-09-18T01:09:36;18.20;89.80
59505;DHT22;45321;53.200;5.814;2023-09-18T01:12:10;18.20;89.90
59505;DHT22;45321;53.200;5.814;2023-09-18T01:14:55;18.30;89.90
59505;DHT22;45321;53.200;5.814;2023-09-18T01:17:22;18.30;89.90
59505;DHT22;45321;53.200;5.814;2023-09-18T01:19:48;18.30;89.80
59505;DHT22;45321;53.200;5.814;2023-09-18T01:22:17;18.30;89.80
59505;DHT22;45321;53.200;5.814;2023-09-18T01:24:44;18.20;89.70
59505;DHT22;45321;53.200;5.814;2023-09-18T01:27:12;18.30;89.70
59505;DHT22;45321;53.200;5.814;2023-09-18T01:29:47;18.20;89.70
59505;DHT22;45321;53.200;5.814;2023-09-18T01:32:15;18.30;89.80
59505;DHT22;45321;53.200;5.814;2023-09-18T01:34:52;18.20;89.80
59505;DHT22;45321;53.200;5.814;2023-09-18T01:37:21;18.20;89.70
59505;DHT22;45321;53.200;5.814;2023-09-18T01:39:50;18.30;89.70
59505;DHT22;45321;53.200;5.814;2023-09-18T01:42:17;18.20;89.80
59505;DHT22;45321;53.200;5.814;2023-09-18T01:44:43;18.20;89.80
59505;DHT22;45321;53.200;5.814;2023-09-18T01:47:12;18.20;89.80
59505;DHT22;45321;53.200;5.814;2023-09-18T01:49:39;18.20;89.80
59505;DHT22;45321;53.200;5.814;2023-09-18T01:52:07;18.20;89.70
59505;DHT22;45321;53.200;5.814;2023-09-18T01:54:34;18.20;89.80
59505;DHT22;45321;53.200;5.814;2023-09-18T01:57:00;18.20;89.80
59505;DHT22;45321;53.200;5.814;2023-09-18T01:59:26;18.30;89.80
59505;DHT22;45321;53.200;5.814;2023-09-18T02:01:52;18.30;89.90
59505;DHT22;45321;53.200;5.814;2023-09-18T02:04:18;18.30;89.90
59505;DHT22;45321;53.200;5.814;2023-09-18T02:06:48;18.20;89.70
59505;DHT22;45321;53.200;5.814;2023-09-18T02:09:14;18.30;89.60
59505;DHT22;45321;53.200;5.814;2023-09-18T02:11:42;18.20;89.70
59505;DHT22;45321;53.200;5.814;2023-09-18T02:14:08;18.30;89.80
59505;DHT22;45321;53.200;5.814;2023-09-18T02:16:39;18.30;89.80
59505;DHT22;45321;53.200;5.814;2023-09-18T02:19:09;18.30;89.90
59505;DHT22;45321;53.200;5.814;2023-09-18T02:21:36;18.30;90.00
59505;DHT22;45321;53.200;5.814;2023-09-18T02:24:02;18.30;90.00
59505;DHT22;45321;53.200;5.814;2023-09-18T02:26:28;18.30;90.00
59505;DHT22;45321;53.200;5.814;2023-09-18T02:28:54;18.30;90.10
59505;DHT22;45321;53.200;5.814;2023-09-18T02:31:21;18.30;90.00
59505;DHT22;45321;53.200;5.814;2023-09-18T02:33:47;18.30;90.00
59505;DHT22;45321;53.200;5.814;2023-09-18T02:36:13;18.30;90.10
59505;DHT22;45321;53.200;5.814;2023-09-18T02:38:39;18.30;90.00
59505;DHT22;45321;53.200;5.814;2023-09-18T02:41:05;18.30;89.90
59505;DHT22;45321;53.200;5.814;2023-09-18T02:43:30;18.30;89.90
59505;DHT22;45321;53.200;5.814;2023-09-18T02:45:56;18.30;89.90
59505;DHT22;45321;53.200;5.814;2023-09-18T02:48:22;18.30;89.80
59505;DHT22;45321;53.200;5.814;2023-09-18T02:50:48;18.30;89.70
59505;DHT22;45321;53.200;5.814;2023-09-18T02:53:19;18.40;89.70
59505;DHT22;45321;53.200;5.814;2023-09-18T02:55:47;18.40;89.80
59505;DHT22;45321;53.200;5.814;2023-09-18T02:58:13;18.40;89.70
59505;DHT22;45321;53.200;5.814;2023-09-18T03:00:43;18.40;89.70
59505;DHT22;45321;53.200;5.814;2023-09-18T03:03:09;18.40;89.70
59505;DHT22;45321;53.200;5.814;2023-09-18T03:05:35;18.40;89.70
59505;DHT22;45321;53.200;5.814;2023-09-18T03:08:01;18.40;89.70
59505;DHT22;45321;53.200;5.814;2023-09-18T03:10:27;18.40;89.60
59505;DHT22;45321;53.200;5.814;2023-09-18T03:12:53;18.50;89.60
59505;DHT22;45321;53.200;5.814;2023-09-18T03:15:19;18.40;89.50
59505;DHT22;45321;53.200;5.814;2023-09-18T03:17:44;18.40;89.60
59505;DHT22;45321;53.200;5.814;2023-09-18T03:20:11;18.40;89.50
59505;DHT22;45321;53.200;5.814;2023-09-18T03:22:36;18.50;89.60
59505;DHT22;45321;53.200;5.814;2023-09-18T03:25:02;18.50;89.70
59505;DHT22;45321;53.200;5.814;2023-09-18T03:27:31;18.50;89.70
59505;DHT22;45321;53.200;5.814;2023-09-18T03:29:57;18.50;89.70
59505;DHT22;45321;53.200;5.814;2023-09-18T03:32:23;18.50;89.80
59505;DHT22;45321;53.200;5.814;2023-09-18T03:34:53;18.50;89.70
59505;DHT22;45321;53.200;5.814;2023-09-18T03:37:19;18.60;89.70
59505;DHT22;45321;53.200;5.814;2023-09-18T03:39:44;18.50;89.80
59505;DHT22;45321;53.200;5.814;2023-09-18T03:42:10;18.50;89.80
59505;DHT22;45321;53.200;5.814;2023-09-18T03:44:36;18.50;89.70
59505;DHT22;45321;53.200;5.814;2023-09-18T03:47:02;18.50;89.70
59505;DHT22;45321;53.200;5.814;2023-09-18T03:49:29;18.60;89.60
59505;DHT22;45321;53.200;5.814;2023-09-18T03:51:55;18.60;89.70
59505;DHT22;45321;53.200;5.814;2023-09-18T03:54:21;18.60;89.80
59505;DHT22;45321;53.200;5.814;2023-09-18T03:56:47;18.60;89.70
59505;DHT22;45321;53.200;5.814;2023-09-18T03:59:13;18.60;89.70
59505;DHT22;45321;53.200;5.814;2023-09-18T04:01:39;18.60;89.60
59505;DHT22;45321;53.200;5.814;2023-09-18T04:04:05;18.50;89.60
59505;DHT22;45321;53.200;5.814;2023-09-18T04:06:40;18.60;89.60
59505;DHT22;45321;53.200;5.814;2023-09-18T04:09:06;18.60;89.60
59505;DHT22;45321;53.200;5.814;2023-09-18T04:11:31;18.60;89.70
59505;DHT22;45321;53.200;5.814;2023-09-18T04:13:58;18.60;89.70
59505;DHT22;45321;53.200;5.814;2023-09-18T04:16:25;18.70;89.70
59505;DHT22;45321;53.200;5.814;2023-09-18T04:18:51;18.60;89.60
59505;DHT22;45321;53.200;5.814;2023-09-18T04:21:17;18.60;89.70
59505;DHT22;45321;53.200;5.814;2023-09-18T04:23:45;18.60;89.60
59505;DHT22;45321;53.200;5.814;2023-09-18T04:26:11;18.60;89.60
59505;DHT22;45321;53.200;5.814;2023-09-18T04:28:39;18.60;89.60
59505;DHT22;45321;53.200;5.814;2023-09-18T04:31:05;18.60;89.70
59505;DHT22;45321;53.200;5.814;2023-09-18T04:33:31;18.70;89.80
59505;DHT22;45321;53.200;5.814;2023-09-18T04:35:56;18.60;89.80
59505;DHT22;45321;53.200;5.814;2023-09-18T04:38:22;18.70;89.90
59505;DHT22;45321;53.200;5.814;2023-09-18T04:40:48;18.60;89.80
59505;DHT22;45321;53.200;5.814;2023-09-18T04:43:14;18.70;89.90
59505;DHT22;45321;53.200;5.814;2023-09-18T04:45:39;18.70;89.90
59505;DHT22;45321;53.200;5.814;2023-09-18T04:48:05;18.70;89.90
59505;DHT22;45321;53.200;5.814;2023-09-18T04:50:32;18.70;90.00
59505;DHT22;45321;53.200;5.814;2023-09-18T04:52:59;18.70;89.90
59505;DHT22;45321;53.200;5.814;2023-09-18T04:55:25;18.70;90.00
59505;DHT22;45321;53.200;5.814;2023-09-18T04:57:51;18.70;90.00
59505;DHT22;45321;53.200;5.814;2023-09-18T05:00:17;18.70;90.00
59505;DHT22;45321;53.200;5.814;2023-09-18T05:02:43;18.70;90.10
59505;DHT22;45321;53.200;5.814;2023-09-18T05:05:09;18.70;90.00
59505;DHT22;45321;53.200;5.814;2023-09-18T05:07:35;18.70;90.00
59505;DHT22;45321;53.200;5.814;2023-09-18T05:10:01;18.70;90.20
59505;DHT22;45321;53.200;5.814;2023-09-18T05:12:26;18.70;90.30
59505;DHT22;45321;53.200;5.814;2023-09-18T05:14:52;18.70;90.10
59505;DHT22;45321;53.200;5.814;2023-09-18T05:17:43;18.70;90.40
59505;DHT22;45321;53.200;5.814;2023-09-18T05:20:13;18.80;90.20
59505;DHT22;45321;53.200;5.814;2023-09-18T05:22:42;18.70;90.20
59505;DHT22;45321;53.200;5.814;2023-09-18T05:25:11;18.80;90.10
59505;DHT22;45321;53.200;5.814;2023-09-18T05:27:40;18.80;90.10
59505;DHT22;45321;53.200;5.814;2023-09-18T05:30:14;18.70;90.00
59505;DHT22;45321;53.200;5.814;2023-09-18T05:32:44;18.80;90.10
59505;DHT22;45321;53.200;5.814;2023-09-18T05:35:11;18.80;90.00
59505;DHT22;45321;53.200;5.814;2023-09-18T05:37:38;18.80;89.90
59505;DHT22;45321;53.200;5.814;2023-09-18T05:40:06;18.80;90.00
59505;DHT22;45321;53.200;5.814;2023-09-18T05:42:35;18.80;90.00
59505;DHT22;45321;53.200;5.814;2023-09-18T05:45:02;18.80;90.10
59505;DHT22;45321;53.200;5.814;2023-09-18T05:47:33;18.80;90.00
59505;DHT22;45321;53.200;5.814;2023-09-18T05:49:59;18.80;90.00
59505;DHT22;45321;53.200;5.814;2023-09-18T05:52:25;18.90;89.90
59505;DHT22;45321;53.200;5.814;2023-09-18T05:54:54;18.90;89.80
59505;DHT22;45321;53.200;5.814;2023-09-18T05:57:20;18.90;89.70
59505;DHT22;45321;53.200;5.814;2023-09-18T05:59:46;18.90;90.00
59505;DHT22;45321;53.200;5.814;2023-09-18T06:02:12;18.90;90.10
59505;DHT22;45321;53.200;5.814;2023-09-18T06:04:37;19.00;90.20
59505;DHT22;45321;53.200;5.814;2023-09-18T06:07:04;18.90;90.10
59505;DHT22;45321;53.200;5.814;2023-09-18T06:09:30;19.00;90.20
59505;DHT22;45321;53.200;5.814;2023-09-18T06:11:55;19.00;90.10
59505;DHT22;45321;53.200;5.814;2023-09-18T06:14:22;19.00;90.20
59505;DHT22;45321;53.200;5.814;2023-09-18T06:16:48;19.10;90.40
59505;DHT22;45321;53.200;5.814;2023-09-18T06:19:16;19.10;90.40
59505;DHT22;45321;53.200;5.814;2023-09-18T06:21:43;19.10;90.50
59505;DHT22;45321;53.200;5.814;2023-09-18T06:24:09;19.10;90.40
59505;DHT22;45321;53.200;5.814;2023-09-18T06:26:35;19.20;90.50
59505;DHT22;45321;53.200;5.814;2023-09-18T06:29:01;19.10;90.50
59505;DHT22;45321;53.200;5.814;2023-09-18T06:31:28;19.20;90.60
59505;DHT22;45321;53.200;5.814;2023-09-18T06:33:54;19.20;90.60
59505;DHT22;45321;53.200;5.814;2023-09-18T06:36:20;19.20;90.50
59505;DHT22;45321;53.200;5.814;2023-09-18T06:38:46;19.20;90.70
59505;DHT22;45321;53.200;5.814;2023-09-18T06:41:11;19.20;91.20
59505;DHT22;45321;53.200;5.814;2023-09-18T06:43:37;19.20;91.80
59505;DHT22;45321;53.200;5.814;2023-09-18T06:46:03;19.20;91.50
59505;DHT22;45321;53.200;5.814;2023-09-18T06:48:29;19.10;91.30
59505;DHT22;45321;53.200;5.814;2023-09-18T06:50:58;19.20;91.20
59505;DHT22;45321;53.200;5.814;2023-09-18T06:53:26;19.10;91.30
59505;DHT22;45321;53.200;5.814;2023-09-18T06:55:53;19.10;91.50
59505;DHT22;45321;53.200;5.814;2023-09-18T06:58:19;19.10;91.40
59505;DHT22;45321;53.200;5.814;2023-09-18T07:00:45;19.10;91.30
59505;DHT22;45321;53.200;5.814;2023-09-18T07:03:11;19.10;91.50
59505;DHT22;45321;53.200;5.814;2023-09-18T07:05:37;19.10;91.50
59505;DHT22;45321;53.200;5.814;2023-09-18T07:08:05;19.10;91.40
59505;DHT22;45321;53.200;5.814;2023-09-18T07:10:35;19.10;91.50
59505;DHT22;45321;53.200;5.814;2023-09-18T07:13:01;19.10;91.70
59505;DHT22;45321;53.200;5.814;2023-09-18T07:15:27;19.10;91.40
59505;DHT22;45321;53.200;5.814;2023-09-18T07:17:52;19.00;91.60
59505;DHT22;45321;53.200;5.814;2023-09-18T07:20:18;19.10;91.60
59505;DHT22;45321;53.200;5.814;2023-09-18T07:22:48;19.10;91.50
59505;DHT22;45321;53.200;5.814;2023-09-18T07:25:14;19.10;91.40
59505;DHT22;45321;53.200;5.814;2023-09-18T07:27:40;19.10;91.50
59505;DHT22;45321;53.200;5.814;2023-09-18T07:30:10;19.00;91.70
59505;DHT22;45321;53.200;5.814;2023-09-18T07:32:36;19.10;91.80
59505;DHT22;45321;53.200;5.814;2023-09-18T07:35:03;19.00;92.00
59505;DHT22;45321;53.200;5.814;2023-09-18T07:37:31;19.00;92.40
59505;DHT22;45321;53.200;5.814;2023-09-18T07:39:57;19.00;92.20
59505;DHT22;45321;53.200;5.814;2023-09-18T07:42:26;19.00;92.10
59505;DHT22;45321;53.200;5.814;2023-09-18T07:44:51;19.00;91.90
59505;DHT22;45321;53.200;5.814;2023-09-18T07:47:17;19.00;92.10
59505;DHT22;45321;53.200;5.814;2023-09-18T07:49:43;19.00;92.10
59505;DHT22;45321;53.200;5.814;2023-09-18T07:52:09;19.00;92.10
59505;DHT22;45321;53.200;5.814;2023-09-18T07:54:35;19.00;92.20
59505;DHT22;45321;53.200;5.814;2023-09-18T07:57:01;19.00;92.10
59505;DHT22;45321;53.200;5.814;2023-09-18T07:59:27;19.00;92.40
59505;DHT22;45321;53.200;5.814;2023-09-18T08:01:53;19.00;92.30
59505;DHT22;45321;53.200;5.814;2023-09-18T08:04:20;19.00;92.40
59505;DHT22;45321;53.200;5.814;2023-09-18T08:06:46;19.00;92.60
59505;DHT22;45321;53.200;5.814;2023-09-18T08:09:13;19.00;92.70
59505;DHT22;45321;53.200;5.814;2023-09-18T08:11:42;19.00;92.90
59505;DHT22;45321;53.200;5.814;2023-09-18T08:14:11;19.00;92.90
59505;DHT22;45321;53.200;5.814;2023-09-18T08:16:40;19.00;93.00
59505;DHT22;45321;53.200;5.814;2023-09-18T08:19:05;19.00;93.30
59505;DHT22;45321;53.200;5.814;2023-09-18T08:21:32;19.10;93.20
59505;DHT22;45321;53.200;5.814;2023-09-18T08:23:58;19.10;93.30
59505;DHT22;45321;53.200;5.814;2023-09-18T08:26:24;19.10;93.30
59505;DHT22;45321;53.200;5.814;2023-09-18T08:28:54;19.10;93.40
59505;DHT22;45321;53.200;5.814;2023-09-18T08:31:20;19.10;93.10
59505;DHT22;45321;53.200;5.814;2023-09-18T08:33:45;19.10;93.20
59505;DHT22;45321;53.200;5.814;2023-09-18T08:36:12;19.20;93.40
59505;DHT22;45321;53.200;5.814;2023-09-18T08:38:38;19.20;93.30
59505;DHT22;45321;53.200;5.814;2023-09-18T08:41:04;19.10;93.50
59505;DHT22;45321;53.200;5.814;2023-09-18T08:43:32;19.10;93.70
59505;DHT22;45321;53.200;5.814;2023-09-18T08:45:59;19.20;93.70
59505;DHT22;45321;53.200;5.814;2023-09-18T08:48:28;19.20;93.80
59505;DHT22;45321;53.200;5.814;2023-09-18T08:51:05;19.20;93.60
59505;DHT22;45321;53.200;5.814;2023-09-18T08:53:32;19.20;93.50
59505;DHT22;45321;53.200;5.814;2023-09-18T08:56:03;19.20;93.60
59505;DHT22;45321;53.200;5.814;2023-09-18T08:58:36;19.30;93.50
59505;DHT22;45321;53.200;5.814;2023-09-18T09:01:03;19.30;93.70
59505;DHT22;45321;53.200;5.814;2023-09-18T09:03:31;19.30;93.80
59505;DHT22;45321;53.200;5.814;2023-09-18T09:06:00;19.30;93.90
59505;DHT22;45321;53.200;5.814;2023-09-18T09:08:28;19.40;93.80
59505;DHT22;45321;53.200;5.814;2023-09-18T09:10:54;19.40;93.70
59505;DHT22;45321;53.200;5.814;2023-09-18T09:13:23;19.50;93.90
59505;DHT22;45321;53.200;5.814;2023-09-18T09:15:53;19.50;93.80
59505;DHT22;45321;53.200;5.814;2023-09-18T09:18:22;19.50;93.60
59505;DHT22;45321;53.200;5.814;2023-09-18T09:21:01;19.50;93.50
59505;DHT22;45321;53.200;5.814;2023-09-18T09:23:52;19.60;93.50
59505;DHT22;45321;53.200;5.814;2023-09-18T09:26:20;19.60;93.60
59505;DHT22;45321;53.200;5.814;2023-09-18T09:28:46;19.60;93.60
59505;DHT22;45321;53.200;5.814;2023-09-18T09:31:29;19.70;93.60
59505;DHT22;45321;53.200;5.814;2023-09-18T09:33:56;19.70;93.60
59505;DHT22;45321;53.200;5.814;2023-09-18T09:36:23;19.70;93.50
59505;DHT22;45321;53.200;5.814;2023-09-18T09:38:55;19.80;93.50
59505;DHT22;45321;53.200;5.814;2023-09-18T09:41:25;19.80;93.80
59505;DHT22;45321;53.200;5.814;2023-09-18T09:43:54;19.80;93.70
59505;DHT22;45321;53.200;5.814;2023-09-18T09:46:21;19.90;93.70
59505;DHT22;45321;53.200;5.814;2023-09-18T09:49:04;19.80;93.60
59505;DHT22;45321;53.200;5.814;2023-09-18T09:51:31;19.90;93.20
59505;DHT22;45321;53.200;5.814;2023-09-18T09:53:57;20.00;93.60
59505;DHT22;45321;53.200;5.814;2023-09-18T09:56:47;20.00;93.40
59505;DHT22;45321;53.200;5.814;2023-09-18T09:59:14;20.00;93.10
59505;DHT22;45321;53.200;5.814;2023-09-18T10:01:41;20.00;93.00
59505;DHT22;45321;53.200;5.814;2023-09-18T10:04:13;20.00;92.80
59505;DHT22;45321;53.200;5.814;2023-09-18T10:06:44;20.00;92.80
59505;DHT22;45321;53.200;5.814;2023-09-18T10:09:12;20.10;92.50
59505;DHT22;45321;53.200;5.814;2023-09-18T10:11:41;20.00;92.40
59505;DHT22;45321;53.200;5.814;2023-09-18T10:16:49;20.10;92.40
59505;DHT22;45321;53.200;5.814;2023-09-18T10:19:45;20.10;92.40
59505;DHT22;45321;53.200;5.814;2023-09-18T10:22:30;20.20;92.40
59505;DHT22;45321;53.200;5.814;2023-09-18T10:25:14;20.20;92.20
59505;DHT22;45321;53.200;5.814;2023-09-18T10:27:48;20.20;91.90
59505;DHT22;45321;53.200;5.814;2023-09-18T10:30:24;20.20;91.80
59505;DHT22;45321;53.200;5.814;2023-09-18T10:32:51;20.30;91.70
59505;DHT22;45321;53.200;5.814;2023-09-18T10:35:17;20.40;91.90
59505;DHT22;45321;53.200;5.814;2023-09-18T10:37:46;20.50;91.60
59505;DHT22;45321;53.200;5.814;2023-09-18T10:40:13;20.50;91.40
59505;DHT22;45321;53.200;5.814;2023-09-18T10:42:40;20.50;91.00
59505;DHT22;45321;53.200;5.814;2023-09-18T10:45:11;20.40;91.00
59505;DHT22;45321;53.200;5.814;2023-09-18T10:47:39;20.40;91.00
59505;DHT22;45321;53.200;5.814;2023-09-18T10:50:06;20.40;91.50
59505;DHT22;45321;53.200;5.814;2023-09-18T10:52:34;20.50;91.20
59505;DHT22;45321;53.200;5.814;2023-09-18T10:55:01;20.60;91.50
59505;DHT22;45321;53.200;5.814;2023-09-18T10:57:36;20.70;91.40
59505;DHT22;45321;53.200;5.814;2023-09-18T11:00:03;20.90;91.30
59505;DHT22;45321;53.200;5.814;2023-09-18T11:02:40;21.10;91.10
59505;DHT22;45321;53.200;5.814;2023-09-18T11:05:06;21.20;89.70
59505;DHT22;45321;53.200;5.814;2023-09-18T11:07:32;21.30;89.40
59505;DHT22;45321;53.200;5.814;2023-09-18T11:09:58;21.50;88.50
59505;DHT22;45321;53.200;5.814;2023-09-18T11:12:43;21.70;88.80
59505;DHT22;45321;53.200;5.814;2023-09-18T11:15:25;21.70;87.70
59505;DHT22;45321;53.200;5.814;2023-09-18T11:18:02;21.70;87.80
59505;DHT22;45321;53.200;5.814;2023-09-18T11:20:31;21.90;88.10
59505;DHT22;45321;53.200;5.814;2023-09-18T11:25:41;22.20;85.40
59505;DHT22;45321;53.200;5.814;2023-09-18T11:28:23;22.40;85.50
59505;DHT22;45321;53.200;5.814;2023-09-18T11:30:57;22.40;85.00
59505;DHT22;45321;53.200;5.814;2023-09-18T11:33:39;22.30;81.30
59505;DHT22;45321;53.200;5.814;2023-09-18T11:36:08;22.30;84.00
59505;DHT22;45321;53.200;5.814;2023-09-18T11:41:28;22.30;83.50
59505;DHT22;45321;53.200;5.814;2023-09-18T11:46:40;22.40;81.20
59505;DHT22;45321;53.200;5.814;2023-09-18T11:49:11;22.20;81.40
59505;DHT22;45321;53.200;5.814;2023-09-18T11:51:38;22.10;81.70
59505;DHT22;45321;53.200;5.814;2023-09-18T11:54:07;22.00;81.80
59505;DHT22;45321;53.200;5.814;2023-09-18T11:56:33;22.00;82.50
59505;DHT22;45321;53.200;5.814;2023-09-18T11:58:59;22.10;82.30
59505;DHT22;45321;53.200;5.814;2023-09-18T12:01:25;22.20;82.40
59505;DHT22;45321;53.200;5.814;2023-09-18T12:03:54;22.20;82.50
59505;DHT22;45321;53.200;5.814;2023-09-18T12:06:20;22.10;82.30
59505;DHT22;45321;53.200;5.814;2023-09-18T12:08:47;22.10;82.40
59505;DHT22;45321;53.200;5.814;2023-09-18T12:11:13;22.10;82.70
59505;DHT22;45321;53.200;5.814;2023-09-18T12:13:46;22.20;81.80
59505;DHT22;45321;53.200;5.814;2023-09-18T12:16:11;22.20;81.60
59505;DHT22;45321;53.200;5.814;2023-09-18T12:18:45;22.20;81.40
59505;DHT22;45321;53.200;5.814;2023-09-18T12:21:10;22.10;81.20
59505;DHT22;45321;53.200;5.814;2023-09-18T12:23:40;22.10;81.50
59505;DHT22;45321;53.200;5.814;2023-09-18T12:26:06;22.00;81.30
59505;DHT22;45321;53.200;5.814;2023-09-18T12:28:37;22.10;82.60
59505;DHT22;45321;53.200;5.814;2023-09-18T12:31:04;22.30;82.20
59505;DHT22;45321;53.200;5.814;2023-09-18T12:33:38;22.60;81.70
59505;DHT22;45321;53.200;5.814;2023-09-18T12:36:05;22.70;80.60
59505;DHT22;45321;53.200;5.814;2023-09-18T12:38:32;22.90;79.80
59505;DHT22;45321;53.200;5.814;2023-09-18T12:40:59;22.90;78.60
59505;DHT22;45321;53.200;5.814;2023-09-18T12:43:41;22.80;77.50
59505;DHT22;45321;53.200;5.814;2023-09-18T12:46:08;22.60;78.80
59505;DHT22;45321;53.200;5.814;2023-09-18T12:48:38;22.50;79.40
59505;DHT22;45321;53.200;5.814;2023-09-18T12:51:07;22.50;80.30
59505;DHT22;45321;53.200;5.814;2023-09-18T12:53:34;22.30;79.80
59505;DHT22;45321;53.200;5.814;2023-09-18T12:56:13;22.20;80.60
59505;DHT22;45321;53.200;5.814;2023-09-18T12:58:40;22.10;80.70
59505;DHT22;45321;53.200;5.814;2023-09-18T13:01:07;22.20;81.50
59505;DHT22;45321;53.200;5.814;2023-09-18T13:03:35;22.20;79.20
59505;DHT22;45321;53.200;5.814;2023-09-18T13:06:12;22.40;80.60
59505;DHT22;45321;53.200;5.814;2023-09-18T13:08:42;22.50;80.70
59505;DHT22;45321;53.200;5.814;2023-09-18T13:11:07;22.50;79.40
59505;DHT22;45321;53.200;5.814;2023-09-18T13:13:34;22.40;78.90
59505;DHT22;45321;53.200;5.814;2023-09-18T13:16:04;22.20;78.70
59505;DHT22;45321;53.200;5.814;2023-09-18T13:18:29;22.20;79.40
59505;DHT22;45321;53.200;5.814;2023-09-18T13:20:56;22.10;78.50
59505;DHT22;45321;53.200;5.814;2023-09-18T13:23:31;22.00;79.30
59505;DHT22;45321;53.200;5.814;2023-09-18T13:26:02;21.90;79.60
59505;DHT22;45321;53.200;5.814;2023-09-18T13:28:29;21.90;79.70
59505;DHT22;45321;53.200;5.814;2023-09-18T13:30:56;21.80;79.20
59505;DHT22;45321;53.200;5.814;2023-09-18T13:33:22;21.70;78.90
59505;DHT22;45321;53.200;5.814;2023-09-18T13:35:49;21.70;79.30
59505;DHT22;45321;53.200;5.814;2023-09-18T13:38:15;21.60;80.20
59505;DHT22;45321;53.200;5.814;2023-09-18T13:40:42;21.50;79.50
59505;DHT22;45321;53.200;5.814;2023-09-18T13:43:09;21.40;80.60
59505;DHT22;45321;53.200;5.814;2023-09-18T13:45:35;21.30;81.50
59505;DHT22;45321;53.200;5.814;2023-09-18T13:48:05;21.20;82.20
59505;DHT22;45321;53.200;5.814;2023-09-18T13:50:32;21.10;81.80
59505;DHT22;45321;53.200;5.814;2023-09-18T13:52:58;20.90;81.50
59505;DHT22;45321;53.200;5.814;2023-09-18T13:55:25;20.70;81.70
59505;DHT22;45321;53.200;5.814;2023-09-18T13:57:51;20.60;81.30
59505;DHT22;45321;53.200;5.814;2023-09-18T14:00:17;20.40;81.60
59505;DHT22;45321;53.200;5.814;2023-09-18T14:02:42;20.30;81.70
59505;DHT22;45321;53.200;5.814;2023-09-18T14:05:09;20.20;81.80
59505;DHT22;45321;53.200;5.814;2023-09-18T14:07:37;20.20;82.40
59505;DHT22;45321;53.200;5.814;2023-09-18T14:10:10;20.10;83.10
59505;DHT22;45321;53.200;5.814;2023-09-18T14:12:37;20.10;83.00
59505;DHT22;45321;53.200;5.814;2023-09-18T14:15:05;20.00;83.80
59505;DHT22;45321;53.200;5.814;2023-09-18T14:17:31;20.00;84.00
59505;DHT22;45321;53.200;5.814;2023-09-18T14:19:56;20.00;84.40
59505;DHT22;45321;53.200;5.814;2023-09-18T14:22:23;20.00;84.80
59505;DHT22;45321;53.200;5.814;2023-09-18T14:24:49;20.00;85.70
59505;DHT22;45321;53.200;5.814;2023-09-18T14:27:15;19.90;85.90
59505;DHT22;45321;53.200;5.814;2023-09-18T14:29:41;19.90;85.90
59505;DHT22;45321;53.200;5.814;2023-09-18T14:32:06;19.90;86.80
59505;DHT22;45321;53.200;5.814;2023-09-18T14:34:34;19.90;86.90
59505;DHT22;45321;53.200;5.814;2023-09-18T14:37:04;19.90;86.70
59505;DHT22;45321;53.200;5.814;2023-09-18T14:39:34;19.80;86.20
59505;DHT22;45321;53.200;5.814;2023-09-18T14:42:00;19.80;86.10
59505;DHT22;45321;53.200;5.814;2023-09-18T14:44:26;19.70;86.10
59505;DHT22;45321;53.200;5.814;2023-09-18T14:46:56;19.70;86.30
59505;DHT22;45321;53.200;5.814;2023-09-18T14:49:22;19.60;86.20
59505;DHT22;45321;53.200;5.814;2023-09-18T14:51:48;19.60;86.70
59505;DHT22;45321;53.200;5.814;2023-09-18T14:54:15;19.70;87.50
59505;DHT22;45321;53.200;5.814;2023-09-18T14:56:41;19.90;87.40
59505;DHT22;45321;53.200;5.814;2023-09-18T14:59:07;20.20;86.90
59505;DHT22;45321;53.200;5.814;2023-09-18T15:01:33;20.40;84.90
59505;DHT22;45321;53.200;5.814;2023-09-18T15:03:59;20.80;85.90
59505;DHT22;45321;53.200;5.814;2023-09-18T15:06:25;21.20;84.60
59505;DHT22;45321;53.200;5.814;2023-09-18T15:08:54;21.30;83.80
59505;DHT22;45321;53.200;5.814;2023-09-18T15:11:20;21.50;83.50
59505;DHT22;45321;53.200;5.814;2023-09-18T15:13:46;22.10;82.70
59505;DHT22;45321;53.200;5.814;2023-09-18T15:16:12;22.40;81.60
59505;DHT22;45321;53.200;5.814;2023-09-18T15:18:38;22.30;81.20
59505;DHT22;45321;53.200;5.814;2023-09-18T15:21:06;22.10;81.50
59505;DHT22;45321;53.200;5.814;2023-09-18T15:23:32;21.80;81.90
59505;DHT22;45321;53.200;5.814;2023-09-18T15:25:58;21.70;81.80
59505;DHT22;45321;53.200;5.814;2023-09-18T15:28:24;21.50;82.00
59505;DHT22;45321;53.200;5.814;2023-09-18T15:30:53;21.30;83.10
59505;DHT22;45321;53.200;5.814;2023-09-18T15:33:19;21.20;83.10
59505;DHT22;45321;53.200;5.814;2023-09-18T15:35:46;21.20;82.90
59505;DHT22;45321;53.200;5.814;2023-09-18T15:38:12;21.00;83.30
59505;DHT22;45321;53.200;5.814;2023-09-18T15:40:38;21.00;83.50
59505;DHT22;45321;53.200;5.814;2023-09-18T15:43:04;20.80;83.70
59505;DHT22;45321;53.200;5.814;2023-09-18T15:45:30;20.80;83.80